Time;durP1;ratioP1;P1;durP2;ratioP2;P2;SDS_P1;SDS_P2;PMS_P1;PMS_P2;Temp;Humidity;BMP_temperature;BMP_pressure;BME280_temperature;BME280_humidity;BME280_pressure;Samples;Min_cycle;Max_cycle;Signal;HPM_P1;HPM_P2
2023/07/04 00:01:24;;;;;;;3.25;0.75;;;21.60;91.10;;;;;;5053549;28;20032;-88
2023/07/04 00:03:54;;;;;;;4.15;0.77;;;21.60;91.10;;;;;;5053251;28;20048;-87
2023/07/04 00:06:21;;;;;;;4.18;0.90;;;21.50;91.20;;;;;;5053513;28;20029;-88
2023/07/04 00:08:49;;;;;;;2.83;0.80;;;21.50;91.20;;;;;;5053366;28;20494;-88
2023/07/04 00:11:15;;;;;;;0.95;0.70;;;21.40;91.50;;;;;;5053524;28;20600;-88
2023/07/04 00:13:41;;;;;;;2.20;0.80;;;21.40;91.70;;;;;;5052868;28;20017;-87
2023/07/04 00:16:09;;;;;;;1.25;0.82;;;21.40;91.80;;;;;;5053200;28;20505;-87
2023/07/04 00:18:36;;;;;;;1.95;0.90;;;21.30;92.00;;;;;;5052882;28;20025;-86
2023/07/04 00:21:04;;;;;;;2.67;0.77;;;21.30;92.10;;;;;;5052996;28;20070;-87
2023/07/04 00:23:34;;;;;;;2.08;0.95;;;21.20;92.20;;;;;;5053039;28;20017;-88
2023/07/04 00:26:02;;;;;;;2.28;0.93;;;21.20;92.40;;;;;;5053129;28;20029;-87
2023/07/04 00:28:28;;;;;;;1.00;0.70;;;21.20;92.50;;;;;;5052848;28;20047;-85
2023/07/04 00:30:54;;;;;;;2.95;1.13;;;21.20;92.80;;;;;;5052904;28;20086;-85
2023/07/04 00:33:24;;;;;;;3.63;0.82;;;21.20;92.90;;;;;;5053069;28;20424;-87
2023/07/04 00:36:00;;;;;;;3.22;0.82;;;21.20;92.90;;;;;;5053176;28;20029;-87
2023/07/04 00:38:26;;;;;;;3.25;1.00;;;21.30;93.10;;;;;;5053053;28;20503;-85
2023/07/04 00:40:52;;;;;;;1.55;0.73;;;21.20;93.10;;;;;;5053011;28;20029;-85
2023/07/04 00:43:18;;;;;;;2.28;0.88;;;21.30;93.10;;;;;;5052874;28;20021;-83
2023/07/04 00:45:44;;;;;;;2.33;0.90;;;21.20;93.10;;;;;;5052944;28;20028;-85
2023/07/04 00:48:14;;;;;;;7.18;1.00;;;21.30;93.20;;;;;;5053450;28;20025;-86
2023/07/04 00:50:45;;;;;;;3.33;0.90;;;21.20;93.00;;;;;;5054685;28;20032;-86
2023/07/04 00:53:15;;;;;;;6.50;1.40;;;21.20;93.10;;;;;;5053725;28;20066;-85
2023/07/04 00:55:46;;;;;;;4.25;1.15;;;21.10;93.20;;;;;;5053421;28;20049;-85
2023/07/04 00:58:12;;;;;;;4.22;1.20;;;21.10;93.40;;;;;;5051965;28;20474;-84
2023/07/04 01:00:38;;;;;;;4.38;1.20;;;21.00;93.60;;;;;;5051409;28;20025;-85
2023/07/04 01:03:10;;;;;;;3.53;1.30;;;21.00;93.70;;;;;;5055003;28;20025;-86
2023/07/04 01:05:54;;;;;;;2.72;1.20;;;21.00;93.80;;;;;;5056523;28;20021;-86
2023/07/04 01:08:26;;;;;;;2.25;1.08;;;20.90;93.70;;;;;;5068214;28;20013;-81
2023/07/04 01:10:53;;;;;;;2.45;1.10;;;20.90;93.70;;;;;;5076698;28;20020;-82
2023/07/04 01:13:35;;;;;;;1.67;0.90;;;20.80;93.70;;;;;;5071132;28;20060;-83
2023/07/04 01:16:10;;;;;;;2.38;1.17;;;20.80;93.80;;;;;;5076286;28;20089;-82
2023/07/04 01:18:38;;;;;;;2.10;1.20;;;20.80;93.30;;;;;;5067687;28;20053;-86
2023/07/04 01:21:06;;;;;;;5.78;1.10;;;20.80;93.20;;;;;;5052712;28;20025;-86
2023/07/04 01:23:43;;;;;;;1.65;1.23;;;20.80;93.30;;;;;;5069671;28;20063;-83
2023/07/04 01:26:21;;;;;;;3.00;1.08;;;20.80;93.30;;;;;;5074771;28;20444;-85
2023/07/04 01:28:51;;;;;;;1.40;1.02;;;20.80;93.40;;;;;;5057953;28;20565;-86
2023/07/04 01:31:20;;;;;;;2.40;1.25;;;20.70;93.50;;;;;;5058495;28;20052;-85
2023/07/04 01:33:49;;;;;;;2.83;0.88;;;20.70;93.50;;;;;;5055930;28;20017;-88
2023/07/04 01:36:22;;;;;;;3.03;1.10;;;20.70;93.50;;;;;;5055584;28;20479;-87
2023/07/04 01:38:48;;;;;;;4.05;1.30;;;20.70;93.50;;;;;;5055786;28;20033;-87
2023/07/04 01:41:15;;;;;;;7.43;1.20;;;20.70;93.60;;;;;;5055781;28;20033;-86
2023/07/04 01:43:42;;;;;;;2.22;1.10;;;20.70;93.60;;;;;;5055167;28;20112;-86
2023/07/04 01:46:07;;;;;;;3.72;1.02;;;20.70;93.60;;;;;;5055088;28;20052;-85
2023/07/04 01:48:33;;;;;;;2.45;1.38;;;20.70;93.50;;;;;;5055081;28;20064;-86
2023/07/04 01:50:59;;;;;;;4.78;1.05;;;20.70;93.50;;;;;;5055054;28;20035;-86
2023/07/04 01:53:25;;;;;;;2.90;1.13;;;20.70;93.40;;;;;;5055068;28;20040;-86
2023/07/04 01:55:50;;;;;;;2.15;1.13;;;20.70;93.50;;;;;;5055197;28;20027;-85
2023/07/04 01:58:16;;;;;;;2.83;1.10;;;20.70;93.50;;;;;;5055011;28;20051;-88
2023/07/04 02:00:42;;;;;;;2.80;0.93;;;20.70;93.60;;;;;;5053873;28;20020;-85
2023/07/04 02:03:08;;;;;;;5.97;1.02;;;20.80;93.60;;;;;;5054868;28;20033;-85
2023/07/04 02:05:33;;;;;;;2.20;1.00;;;20.80;93.50;;;;;;5055133;28;20045;-85
2023/07/04 02:07:59;;;;;;;1.83;0.90;;;20.70;93.20;;;;;;5055139;28;20029;-86
2023/07/04 02:10:26;;;;;;;4.07;1.30;;;20.70;93.20;;;;;;5054951;28;20079;-85
2023/07/04 02:12:51;;;;;;;3.33;1.10;;;20.70;93.20;;;;;;5054791;28;20072;-86
2023/07/04 02:15:17;;;;;;;2.13;1.23;;;20.70;93.20;;;;;;5054624;28;20068;-86
2023/07/04 02:17:43;;;;;;;2.67;1.08;;;20.70;93.10;;;;;;5054656;28;20048;-84
2023/07/04 02:20:09;;;;;;;5.22;0.93;;;20.70;93.20;;;;;;5054580;28;20078;-85
2023/07/04 02:22:35;;;;;;;4.82;0.82;;;20.70;93.20;;;;;;5054799;28;20487;-85
2023/07/04 02:25:02;;;;;;;1.15;0.68;;;20.70;93.20;;;;;;5054721;28;20047;-86
2023/07/04 02:27:28;;;;;;;2.50;0.93;;;20.70;93.00;;;;;;5054306;28;20043;-82
2023/07/04 02:29:54;;;;;;;3.80;1.17;;;20.70;93.00;;;;;;5054651;28;20104;-86
2023/07/04 02:32:20;;;;;;;1.73;0.98;;;20.70;93.00;;;;;;5054220;28;20179;-89
2023/07/04 02:34:46;;;;;;;3.50;1.20;;;20.80;93.10;;;;;;5054735;28;20032;-86
2023/07/04 02:37:12;;;;;;;4.78;1.15;;;20.80;93.10;;;;;;5054386;28;20053;-86
2023/07/04 02:39:37;;;;;;;3.10;0.90;;;20.80;93.10;;;;;;5054213;28;20021;-85
2023/07/04 02:42:04;;;;;;;2.92;1.02;;;20.80;93.20;;;;;;5053814;28;20108;-85
2023/07/04 02:44:30;;;;;;;3.20;1.17;;;20.80;93.30;;;;;;5054034;28;20494;-85
2023/07/04 02:46:56;;;;;;;1.73;1.00;;;20.70;93.50;;;;;;5053881;28;20075;-85
2023/07/04 02:49:22;;;;;;;6.25;0.95;;;20.70;93.70;;;;;;5054073;28;20021;-83
2023/07/04 02:51:48;;;;;;;2.75;1.35;;;20.70;93.80;;;;;;5053810;28;20194;-84
2023/07/04 02:54:15;;;;;;;2.92;1.08;;;20.70;93.80;;;;;;5053941;28;20402;-85
2023/07/04 02:56:42;;;;;;;5.30;1.10;;;20.70;93.90;;;;;;5053651;28;20063;-83
2023/07/04 02:59:08;;;;;;;2.22;1.10;;;20.60;94.00;;;;;;5053705;28;20025;-85
2023/07/04 03:01:33;;;;;;;3.47;1.00;;;20.60;94.00;;;;;;5053716;28;20029;-86
2023/07/04 03:03:59;;;;;;;2.63;1.30;;;20.60;94.00;;;;;;5053867;28;20116;-85
2023/07/04 03:06:25;;;;;;;2.78;1.15;;;20.60;94.10;;;;;;5053857;28;20067;-90
2023/07/04 03:08:51;;;;;;;2.08;1.02;;;20.60;94.20;;;;;;5053833;28;20092;-86
2023/07/04 03:11:18;;;;;;;2.63;1.20;;;20.50;94.30;;;;;;5053988;28;20037;-85
2023/07/04 03:13:43;;;;;;;1.73;1.08;;;20.50;94.40;;;;;;5053808;28;20028;-86
2023/07/04 03:16:09;;;;;;;3.10;1.30;;;20.50;94.50;;;;;;5053329;28;20144;-86
2023/07/04 03:18:35;;;;;;;4.72;0.90;;;20.50;94.50;;;;;;5054073;28;20036;-88
2023/07/04 03:21:01;;;;;;;4.78;1.30;;;20.50;94.60;;;;;;5053913;28;20044;-84
2023/07/04 03:23:27;;;;;;;4.80;1.48;;;20.50;94.60;;;;;;5053708;28;20383;-87
2023/07/04 03:25:53;;;;;;;3.20;1.20;;;20.60;94.70;;;;;;5053431;28;20021;-87
2023/07/04 03:28:18;;;;;;;3.10;1.00;;;20.50;94.70;;;;;;5053636;28;20028;-87
2023/07/04 03:30:44;;;;;;;4.63;1.20;;;20.50;94.70;;;;;;5053142;28;20029;-88
2023/07/04 03:33:10;;;;;;;2.05;1.23;;;20.50;94.80;;;;;;5053304;28;20501;-87
2023/07/04 03:35:38;;;;;;;2.67;1.25;;;20.50;94.80;;;;;;5053644;28;20021;-88
2023/07/04 03:38:04;;;;;;;2.78;1.10;;;20.50;94.90;;;;;;5053426;28;20024;-87
2023/07/04 03:40:30;;;;;;;2.38;1.15;;;20.50;94.90;;;;;;5053143;28;20544;-86
2023/07/04 03:42:56;;;;;;;2.63;1.30;;;20.50;94.90;;;;;;5053226;28;20028;-87
2023/07/04 03:45:21;;;;;;;2.80;1.20;;;20.50;94.90;;;;;;5053384;28;20021;-87
2023/07/04 03:47:47;;;;;;;2.38;1.00;;;20.50;94.70;;;;;;5053091;28;20021;-86
2023/07/04 03:50:13;;;;;;;1.67;1.10;;;20.50;94.50;;;;;;5053542;28;20017;-88
2023/07/04 03:52:39;;;;;;;5.03;1.55;;;20.50;94.60;;;;;;5051671;28;20041;-85
2023/07/04 03:55:06;;;;;;;3.35;1.20;;;20.40;94.70;;;;;;5053337;28;20108;-89
2023/07/04 03:57:31;;;;;;;2.50;1.15;;;20.40;94.70;;;;;;5053185;28;20029;-89
2023/07/04 03:59:57;;;;;;;1.95;1.25;;;20.40;94.60;;;;;;5052792;28;20025;-85
2023/07/04 04:02:23;;;;;;;3.75;1.10;;;20.40;94.50;;;;;;5052718;28;20029;-85
2023/07/04 04:04:49;;;;;;;3.33;1.08;;;20.40;94.30;;;;;;5052727;28;20029;-85
2023/07/04 04:07:16;;;;;;;1.67;0.70;;;20.30;94.20;;;;;;5053100;28;20111;-86
2023/07/04 04:09:42;;;;;;;4.80;1.05;;;20.40;94.10;;;;;;5052950;28;20029;-86
2023/07/04 04:12:09;;;;;;;4.07;0.93;;;20.40;94.00;;;;;;5052595;28;20037;-87
2023/07/04 04:14:36;;;;;;;2.45;0.98;;;20.40;93.90;;;;;;5052883;28;20494;-86
2023/07/04 04:17:03;;;;;;;1.77;1.00;;;20.40;93.90;;;;;;5052557;28;20057;-86
2023/07/04 04:19:28;;;;;;;1.25;0.98;;;20.40;93.90;;;;;;5033597;28;20506;-86
2023/07/04 04:21:55;;;;;;;3.72;0.80;;;20.40;94.00;;;;;;5032547;28;20021;-85
2023/07/04 04:24:22;;;;;;;4.78;1.08;;;20.50;94.10;;;;;;5031404;28;20116;-85
2023/07/04 04:26:48;;;;;;;2.85;0.98;;;20.50;94.20;;;;;;5032850;28;20487;-87
2023/07/04 04:29:17;;;;;;;2.25;1.10;;;20.50;94.20;;;;;;5033224;28;20057;-88
2023/07/04 04:31:45;;;;;;;2.55;1.10;;;20.50;94.30;;;;;;5032653;28;20069;-87
2023/07/04 04:34:11;;;;;;;1.50;0.82;;;20.50;94.40;;;;;;5033262;28;20522;-88
2023/07/04 04:36:37;;;;;;;2.55;0.82;;;20.60;94.30;;;;;;5033298;28;20044;-89
2023/07/04 04:39:04;;;;;;;3.60;1.30;;;20.60;94.30;;;;;;5033257;28;20640;-88
2023/07/04 04:41:30;;;;;;;3.78;1.30;;;20.70;94.20;;;;;;5033129;28;20034;-88
2023/07/04 04:43:57;;;;;;;6.43;1.20;;;20.70;94.20;;;;;;5033707;28;20021;-87
2023/07/04 04:46:23;;;;;;;3.40;1.15;;;20.70;94.30;;;;;;5033296;28;20021;-88
2023/07/04 04:48:50;;;;;;;4.55;1.00;;;20.70;94.40;;;;;;5033505;28;20109;-89
2023/07/04 04:51:18;;;;;;;3.67;1.27;;;20.70;94.40;;;;;;5033470;28;20034;-90
2023/07/04 04:53:45;;;;;;;6.65;1.27;;;20.70;94.50;;;;;;5015830;28;20025;-89
2023/07/04 04:56:12;;;;;;;2.30;1.10;;;20.70;94.60;;;;;;5033107;28;20028;-89
2023/07/04 04:58:43;;;;;;;6.32;1.23;;;20.60;94.70;;;;;;5032275;28;20037;-86
2023/07/04 05:01:14;;;;;;;5.65;1.35;;;20.70;94.60;;;;;;5018218;28;20160;-85
2023/07/04 05:03:41;;;;;;;4.83;1.20;;;20.70;94.60;;;;;;5018490;28;20025;-82
2023/07/04 05:06:07;;;;;;;6.22;1.40;;;20.60;94.70;;;;;;5018394;28;20029;-81
2023/07/04 05:08:34;;;;;;;4.53;1.33;;;20.70;94.90;;;;;;5036093;28;20041;-81
2023/07/04 05:11:06;;;;;;;3.78;1.30;;;20.70;94.80;;;;;;5035862;28;20021;-80
2023/07/04 05:13:40;;;;;;;6.32;1.13;;;20.70;94.80;;;;;;5035936;28;20030;-80
2023/07/04 05:16:08;;;;;;;2.08;0.93;;;20.60;94.90;;;;;;5035680;28;20050;-81
2023/07/04 05:18:35;;;;;;;7.30;1.30;;;20.60;94.90;;;;;;5035721;28;20064;-81
2023/07/04 05:21:12;;;;;;;4.47;1.30;;;20.60;94.80;;;;;;5036003;28;20039;-80
2023/07/04 05:23:41;;;;;;;4.70;1.30;;;20.70;94.80;;;;;;5036015;28;20021;-81
2023/07/04 05:26:12;;;;;;;4.47;1.38;;;20.70;94.80;;;;;;5035559;28;20680;-81
2023/07/04 05:28:39;;;;;;;5.22;1.45;;;20.70;94.80;;;;;;5035587;28;20136;-81
2023/07/04 05:31:26;;;;;;;3.95;1.40;;;20.70;94.80;;;;;;5035376;28;20022;-81
2023/07/04 05:33:53;;;;;;;4.88;1.25;;;20.70;94.80;;;;;;5035536;28;20032;-81
2023/07/04 05:36:32;;;;;;;8.90;1.38;;;20.70;94.80;;;;;;5035382;28;20120;-82
2023/07/04 05:39:01;;;;;;;7.53;1.42;;;20.70;94.60;;;;;;5035538;28;20304;-81
2023/07/04 05:41:29;;;;;;;3.30;1.27;;;20.70;94.50;;;;;;5034993;28;20025;-81
2023/07/04 05:43:56;;;;;;;4.22;1.23;;;20.80;94.60;;;;;;5035260;28;20541;-80
2023/07/04 05:46:22;;;;;;;3.88;1.25;;;20.80;94.60;;;;;;5034540;28;20474;-78
2023/07/04 05:48:47;;;;;;;4.10;1.35;;;20.80;94.50;;;;;;5034050;28;20032;-81
2023/07/04 05:51:16;;;;;;;3.53;1.20;;;20.80;94.40;;;;;;5054399;28;20036;-81
2023/07/04 05:53:45;;;;;;;2.75;1.23;;;20.80;94.40;;;;;;5041159;28;20026;-79
2023/07/04 05:56:22;;;;;;;1.50;1.20;;;20.80;94.40;;;;;;5033998;28;20025;-81
2023/07/04 05:58:50;;;;;;;3.50;1.58;;;20.80;94.20;;;;;;5034112;28;20596;-81
2023/07/04 06:01:25;;;;;;;6.15;1.40;;;20.90;94.00;;;;;;5013399;28;20045;-81
2023/07/04 06:03:52;;;;;;;3.25;0.88;;;20.90;93.70;;;;;;5014590;28;20029;-81
2023/07/04 06:06:30;;;;;;;5.88;1.48;;;20.90;93.50;;;;;;5014406;28;20076;-81
2023/07/04 06:08:58;;;;;;;7.95;0.90;;;21.00;93.40;;;;;;5014659;28;20033;-81
2023/07/04 06:11:26;;;;;;;5.63;1.10;;;21.00;93.10;;;;;;5014035;28;20052;-81
2023/07/04 06:13:53;;;;;;;1.95;1.00;;;21.00;92.70;;;;;;5014541;28;20025;-81
2023/07/04 06:16:20;;;;;;;2.72;0.90;;;21.10;92.50;;;;;;5013949;28;20052;-82
2023/07/04 06:18:46;;;;;;;3.13;1.00;;;21.10;92.20;;;;;;5014251;28;20041;-78
2023/07/04 06:21:19;;;;;;;2.38;0.93;;;21.20;91.90;;;;;;5014177;28;20091;-82
2023/07/04 06:23:45;;;;;;;2.95;0.82;;;21.30;91.80;;;;;;5013995;28;20040;-82
2023/07/04 06:26:12;;;;;;;4.45;0.77;;;21.30;91.70;;;;;;5014446;28;20101;-83
2023/07/04 06:28:39;;;;;;;2.63;0.80;;;21.30;91.60;;;;;;5029381;28;20479;-82
2023/07/04 06:31:11;;;;;;;2.00;0.90;;;21.40;91.40;;;;;;5014085;28;20538;-79
2023/07/04 06:33:36;;;;;;;1.52;0.80;;;21.40;91.10;;;;;;5013913;28;20053;-80
2023/07/04 06:36:03;;;;;;;1.10;0.88;;;21.50;91.00;;;;;;4996469;28;20068;-81
2023/07/04 06:38:29;;;;;;;8.35;1.00;;;21.50;91.10;;;;;;5014072;28;20038;-79
2023/07/04 06:41:00;;;;;;;1.50;0.90;;;21.60;91.20;;;;;;5014209;28;20080;-81
2023/07/04 06:43:28;;;;;;;1.67;0.87;;;21.60;91.30;;;;;;5013854;28;20029;-81
2023/07/04 06:45:55;;;;;;;5.43;1.20;;;21.60;91.30;;;;;;5013744;28;20028;-81
2023/07/04 06:48:24;;;;;;;1.63;0.75;;;21.70;91.40;;;;;;5014059;28;20028;-81
2023/07/04 06:51:08;;;;;;;3.60;1.05;;;21.70;91.50;;;;;;5014246;28;20022;-81
2023/07/04 06:53:35;;;;;;;2.03;0.80;;;21.80;91.30;;;;;;5014124;28;20030;-74
2023/07/04 06:56:11;;;;;;;2.38;0.80;;;21.90;91.40;;;;;;5014045;28;20025;-78
2023/07/04 06:58:42;;;;;;;1.27;0.90;;;21.90;91.40;;;;;;5014304;28;20076;-78
2023/07/04 07:01:10;;;;;;;2.17;1.10;;;22.00;91.40;;;;;;5014352;28;20464;-77
2023/07/04 07:03:37;;;;;;;3.05;0.90;;;22.10;91.00;;;;;;5014096;28;20032;-77
2023/07/04 07:06:08;;;;;;;3.95;1.10;;;22.10;90.40;;;;;;5012655;28;20101;-77
2023/07/04 07:08:34;;;;;;;2.88;0.90;;;22.10;90.00;;;;;;5021690;28;20087;-77
2023/07/04 07:11:02;;;;;;;2.70;1.00;;;22.20;90.00;;;;;;5035132;28;20032;-76
2023/07/04 07:13:28;;;;;;;1.73;0.90;;;22.30;89.70;;;;;;5034573;28;20025;-78
2023/07/04 07:16:14;;;;;;;2.75;0.80;;;22.30;89.80;;;;;;5032810;28;20049;-77
2023/07/04 07:18:42;;;;;;;4.40;0.90;;;22.40;90.00;;;;;;5033290;28;20025;-77
2023/07/04 07:21:09;;;;;;;2.45;0.90;;;22.50;90.00;;;;;;5033013;28;20532;-78
2023/07/04 07:23:37;;;;;;;2.00;1.00;;;22.50;89.80;;;;;;5032114;28;20032;-77
2023/07/04 07:26:04;;;;;;;2.83;1.00;;;22.60;89.30;;;;;;5033137;28;20029;-77
2023/07/04 07:28:31;;;;;;;1.52;0.90;;;22.70;89.20;;;;;;5032979;28;20515;-78
2023/07/04 07:31:06;;;;;;;1.67;1.02;;;22.80;89.00;;;;;;5032388;28;20049;-77
2023/07/04 07:33:33;;;;;;;0.88;0.70;;;22.90;88.50;;;;;;5032365;28;20056;-77
2023/07/04 07:36:07;;;;;;;1.08;0.90;;;22.90;88.10;;;;;;5033258;28;20464;-76
2023/07/04 07:38:32;;;;;;;2.28;0.88;;;23.00;88.00;;;;;;5033200;28;20029;-77
2023/07/04 07:40:58;;;;;;;3.45;1.10;;;23.10;87.70;;;;;;5032939;28;20033;-76
2023/07/04 07:43:24;;;;;;;3.53;0.80;;;23.10;87.60;;;;;;5032261;28;20056;-77
2023/07/04 07:45:49;;;;;;;1.00;0.75;;;23.20;87.00;;;;;;5033057;28;20079;-76
2023/07/04 07:48:17;;;;;;;3.10;0.90;;;23.20;86.20;;;;;;5033253;28;20059;-76
2023/07/04 07:50:43;;;;;;;3.85;1.02;;;23.30;86.10;;;;;;5032781;28;20028;-77
2023/07/04 07:53:09;;;;;;;0.98;0.70;;;23.40;86.40;;;;;;5033030;28;20483;-78
2023/07/04 07:55:35;;;;;;;0.95;0.80;;;23.40;85.70;;;;;;5033000;28;20025;-80
2023/07/04 07:58:01;;;;;;;1.95;0.70;;;23.50;85.00;;;;;;5032933;28;20501;-79
2023/07/04 08:00:29;;;;;;;0.85;0.80;;;23.60;84.20;;;;;;5031901;28;20029;-79
2023/07/04 08:02:55;;;;;;;1.92;0.90;;;23.60;84.60;;;;;;5032670;28;20038;-79
2023/07/04 08:05:20;;;;;;;1.80;0.77;;;23.70;84.20;;;;;;5032936;28;20083;-79
2023/07/04 08:07:46;;;;;;;1.05;0.80;;;23.70;83.30;;;;;;5033025;28;20053;-78
2023/07/04 08:10:12;;;;;;;4.38;0.82;;;23.80;83.60;;;;;;5032721;28;20028;-78
2023/07/04 08:12:37;;;;;;;2.47;0.90;;;23.90;83.20;;;;;;5030270;28;20092;-78
2023/07/04 08:15:04;;;;;;;1.85;0.90;;;23.90;83.10;;;;;;5032255;28;20018;-77
2023/07/04 08:17:30;;;;;;;2.15;1.10;;;24.00;82.90;;;;;;5032124;28;20491;-78
2023/07/04 08:19:55;;;;;;;1.63;0.93;;;24.00;83.10;;;;;;5031136;28;20036;-76
2023/07/04 08:22:21;;;;;;;7.20;1.05;;;24.10;83.30;;;;;;5031812;28;20075;-76
2023/07/04 08:24:47;;;;;;;1.38;0.77;;;24.20;83.00;;;;;;5032147;28;20021;-75
2023/07/04 08:27:12;;;;;;;3.88;0.85;;;24.30;82.50;;;;;;5032216;28;20034;-75
2023/07/04 08:29:38;;;;;;;2.33;0.90;;;24.30;82.10;;;;;;5032331;28;20052;-77
2023/07/04 08:32:06;;;;;;;1.00;0.80;;;24.40;81.70;;;;;;5031495;28;20034;-76
2023/07/04 08:34:32;;;;;;;1.40;0.88;;;24.40;80.00;;;;;;5033806;28;20021;-76
2023/07/04 08:36:58;;;;;;;1.17;0.90;;;24.50;79.60;;;;;;5035517;28;20036;-76
2023/07/04 08:39:24;;;;;;;1.13;0.77;;;24.60;79.60;;;;;;5035733;28;20026;-79
2023/07/04 08:41:59;;;;;;;0.80;0.70;;;24.70;79.30;;;;;;5035537;28;20025;-79
2023/07/04 08:44:31;;;;;;;1.42;0.90;;;24.70;79.50;;;;;;5035991;28;20018;-80
2023/07/04 08:46:58;;;;;;;0.93;0.77;;;24.80;79.30;;;;;;5036606;28;20060;-78
2023/07/04 08:49:50;;;;;;;1.77;0.85;;;24.80;76.70;;;;;;5036728;28;20025;-79
2023/07/04 08:52:30;;;;;;;1.35;0.90;;;24.90;76.30;;;;;;5036906;28;20037;-79
2023/07/04 08:54:56;;;;;;;1.13;0.80;;;24.90;76.00;;;;;;5035632;28;20037;-79
2023/07/04 08:57:42;;;;;;;2.40;1.00;;;25.00;76.10;;;;;;5034824;28;20025;-79
2023/07/04 09:00:14;;;;;;;1.50;0.82;;;25.10;76.70;;;;;;5034019;28;20040;-79
2023/07/04 09:02:58;;;;;;;1.58;0.88;;;25.10;75.80;;;;;;5035976;28;20033;-78
2023/07/04 09:05:34;;;;;;;1.05;0.88;;;25.10;76.70;;;;;;5036327;28;20029;-78
2023/07/04 09:08:19;;;;;;;0.93;0.80;;;25.20;76.40;;;;;;5034789;28;20041;-79
2023/07/04 09:10:49;;;;;;;2.55;1.00;;;25.20;75.00;;;;;;5035991;28;20028;-78
2023/07/04 09:13:27;;;;;;;1.80;0.93;;;25.30;75.30;;;;;;5036127;28;20168;-78
2023/07/04 09:15:55;;;;;;;1.50;1.00;;;25.30;75.30;;;;;;5062901;22;20075;-79
2023/07/04 09:18:28;;;;;;;1.10;0.80;;;25.40;75.00;;;;;;5075690;28;20521;-79
2023/07/04 09:21:14;;;;;;;1.08;0.70;;;25.40;74.80;;;;;;5058011;28;20036;-79
2023/07/04 09:23:41;;;;;;;0.90;0.80;;;25.40;74.70;;;;;;5075763;28;20024;-79
2023/07/04 09:26:10;;;;;;;3.80;1.08;;;25.50;75.20;;;;;;5075685;28;20040;-79
2023/07/04 09:28:39;;;;;;;2.03;1.00;;;25.60;74.70;;;;;;5075648;28;20028;-78
2023/07/04 09:31:08;;;;;;;2.72;1.05;;;25.60;74.30;;;;;;5075781;28;20115;-79
2023/07/04 09:33:35;;;;;;;6.70;1.08;;;25.60;75.10;;;;;;5075667;28;20021;-79
2023/07/04 09:36:02;;;;;;;1.10;0.90;;;25.70;74.70;;;;;;5075550;28;20020;-79
2023/07/04 09:38:58;;;;;;;1.48;0.90;;;25.70;75.60;;;;;;5075395;28;20025;-79
2023/07/04 09:41:34;;;;;;;3.55;1.10;;;25.80;75.80;;;;;;5075596;28;20021;-78
2023/07/04 09:44:26;;;;;;;1.80;1.00;;;25.80;74.20;;;;;;5075665;28;20038;-79
2023/07/04 09:46:54;;;;;;;2.58;0.90;;;25.90;74.00;;;;;;5074353;28;20020;-79
2023/07/04 09:49:31;;;;;;;3.83;1.00;;;26.00;74.70;;;;;;5075216;28;20532;-79
2023/07/04 09:52:22;;;;;;;2.65;1.00;;;26.00;74.80;;;;;;5074986;28;20576;-79
2023/07/04 09:55:13;;;;;;;2.05;1.20;;;26.10;74.20;;;;;;5075352;28;20036;-82
2023/07/04 09:57:39;;;;;;;1.60;0.95;;;26.20;73.70;;;;;;5075238;28;20017;-80
2023/07/04 10:00:17;;;;;;;1.73;0.80;;;26.20;73.10;;;;;;5075041;28;20021;-81
2023/07/04 10:02:43;;;;;;;2.90;1.27;;;26.30;72.80;;;;;;5075053;28;20069;-81
2023/07/04 10:05:12;;;;;;;1.85;1.17;;;26.30;73.50;;;;;;5075082;28;20036;-81
2023/07/04 10:07:39;;;;;;;4.07;1.15;;;26.30;73.20;;;;;;5074781;28;20031;-81
2023/07/04 10:10:07;;;;;;;2.10;0.95;;;26.40;72.60;;;;;;5074828;28;20029;-80
2023/07/04 10:12:44;;;;;;;1.35;1.00;;;26.40;72.00;;;;;;5074740;28;20033;-81
2023/07/04 10:15:10;;;;;;;2.83;1.58;;;26.50;71.20;;;;;;5074692;28;20086;-81
2023/07/04 10:17:39;;;;;;;1.38;1.10;;;26.50;70.70;;;;;;5074534;28;20025;-80
2023/07/04 10:20:13;;;;;;;2.03;1.30;;;26.50;69.80;;;;;;5074400;28;20477;-80
2023/07/04 10:22:41;;;;;;;2.78;1.27;;;26.50;70.10;;;;;;5074528;28;20029;-80
2023/07/04 10:25:16;;;;;;;2.83;1.02;;;26.50;70.20;;;;;;5074505;28;20027;-80
2023/07/04 10:27:47;;;;;;;1.15;1.02;;;26.50;69.70;;;;;;5074687;28;20108;-81
2023/07/04 10:30:23;;;;;;;3.55;1.15;;;26.50;69.50;;;;;;5074307;28;20509;-81
2023/07/04 10:33:00;;;;;;;1.63;1.30;;;26.60;68.90;;;;;;5074129;28;20032;-82
2023/07/04 10:35:30;;;;;;;2.03;1.10;;;26.60;70.30;;;;;;5054284;28;20036;-81
2023/07/04 10:38:12;;;;;;;2.85;1.25;;;26.70;69.60;;;;;;5054117;28;20021;-79
2023/07/04 10:40:39;;;;;;;7.15;1.30;;;26.80;69.20;;;;;;5054214;28;20069;-79
2023/07/04 10:43:12;;;;;;;2.15;1.30;;;26.90;69.00;;;;;;5054414;28;20029;-79
2023/07/04 10:45:41;;;;;;;3.05;1.77;;;27.00;68.10;;;;;;5054238;28;20489;-80
2023/07/04 10:48:12;;;;;;;2.65;1.50;;;27.00;67.80;;;;;;5052817;28;20064;-80
2023/07/04 10:50:51;;;;;;;2.72;1.80;;;27.00;67.20;;;;;;5053047;28;20048;-79
2023/07/04 10:53:18;;;;;;;3.08;1.98;;;27.10;66.80;;;;;;5054126;28;20040;-81
2023/07/04 10:56:09;;;;;;;4.00;1.80;;;27.20;67.00;;;;;;5053745;28;20155;-80
2023/07/04 10:58:41;;;;;;;2.38;1.60;;;27.20;66.30;;;;;;5053267;28;20036;-79
2023/07/04 11:01:17;;;;;;;3.50;2.03;;;27.30;66.00;;;;;;5053703;28;20025;-80
2023/07/04 11:03:48;;;;;;;2.42;1.50;;;27.30;66.40;;;;;;5053744;28;20079;-80
2023/07/04 11:06:19;;;;;;;2.35;1.75;;;27.40;64.70;;;;;;5053738;28;20029;-79
2023/07/04 11:08:45;;;;;;;2.72;1.60;;;27.50;64.80;;;;;;5053580;28;20024;-79
2023/07/04 11:11:15;;;;;;;5.13;2.40;;;27.50;64.20;;;;;;5053577;28;20421;-78
2023/07/04 11:13:49;;;;;;;2.00;1.70;;;27.50;64.70;;;;;;5053795;28;20032;-79
2023/07/04 11:16:15;;;;;;;5.25;1.50;;;27.50;63.50;;;;;;5062578;28;20047;-77
2023/07/04 11:18:58;;;;;;;4.32;1.70;;;27.50;63.30;;;;;;5093604;28;20484;-77
2023/07/04 11:21:24;;;;;;;4.60;1.70;;;27.50;63.40;;;;;;5093784;28;20459;-78
2023/07/04 11:24:09;;;;;;;2.53;1.70;;;27.50;62.20;;;;;;5093707;28;20028;-77
2023/07/04 11:26:49;;;;;;;2.83;1.67;;;27.50;63.20;;;;;;5093323;28;20097;-78
2023/07/04 11:29:20;;;;;;;3.00;1.85;;;27.50;63.00;;;;;;5093574;28;20021;-78
2023/07/04 11:32:04;;;;;;;3.30;1.67;;;27.50;63.20;;;;;;5074911;28;20131;-78
2023/07/04 11:34:51;;;;;;;6.65;1.73;;;27.50;62.90;;;;;;5054784;28;20055;-78
2023/07/04 11:37:40;;;;;;;3.00;1.60;;;27.50;62.60;;;;;;5055337;28;20013;-78
2023/07/04 11:40:21;;;;;;;3.10;1.98;;;27.60;63.80;;;;;;5043333;28;20499;-77
2023/07/04 11:42:51;;;;;;;2.50;1.67;;;27.70;62.80;;;;;;5069312;28;20444;-76
2023/07/04 11:45:21;;;;;;;2.90;1.90;;;27.70;62.20;;;;;;5071453;28;20021;-78
2023/07/04 11:48:17;;;;;;;5.53;2.05;;;27.80;61.80;;;;;;5069512;28;20028;-77
2023/07/04 11:50:48;;;;;;;2.97;2.00;;;27.90;60.60;;;;;;5055592;28;20036;-78
2023/07/04 11:53:45;;;;;;;2.80;1.75;;;28.00;60.00;;;;;;5071337;28;20036;-76
2023/07/04 11:56:17;;;;;;;3.50;2.50;;;28.00;59.60;;;;;;5072569;28;20066;-77
2023/07/04 11:58:45;;;;;;;3.25;1.70;;;28.10;59.00;;;;;;5072567;28;20025;-78
2023/07/04 12:01:12;;;;;;;5.53;2.00;;;28.10;59.30;;;;;;5072777;28;20021;-77
2023/07/04 12:03:55;;;;;;;4.90;2.10;;;28.10;57.80;;;;;;5072854;28;20017;-77
2023/07/04 12:07:10;;;;;;;3.22;2.08;;;28.20;58.00;;;;;;5072546;28;20505;-78
2023/07/04 12:09:57;;;;;;;3.92;2.38;;;28.30;58.00;;;;;;5008245;28;20033;-78
2023/07/04 12:12:31;;;;;;;6.70;2.20;;;28.30;58.50;;;;;;5072370;28;20055;-77
2023/07/04 12:15:02;;;;;;;3.85;2.00;;;28.40;57.40;;;;;;5072841;28;20047;-77
2023/07/04 12:17:28;;;;;;;3.15;2.03;;;28.50;56.60;;;;;;5072327;28;20017;-77
2023/07/04 12:20:03;;;;;;;6.45;3.17;;;28.50;55.90;;;;;;5054655;28;20359;-77
2023/07/04 12:22:29;;;;;;;3.03;2.20;;;28.50;55.30;;;;;;5068448;28;20037;-77
2023/07/04 12:25:09;;;;;;;3.03;2.03;;;28.60;54.80;;;;;;5072527;28;20025;-78
2023/07/04 12:27:35;;;;;;;3.28;2.00;;;28.60;56.60;;;;;;5055232;28;20409;-77
2023/07/04 12:30:02;;;;;;;3.75;1.85;;;28.60;56.90;;;;;;5072346;28;20024;-77
2023/07/04 12:32:28;;;;;;;5.50;2.03;;;28.60;57.00;;;;;;5072314;28;20033;-77
2023/07/04 12:34:54;;;;;;;3.65;2.08;;;28.60;57.00;;;;;;5072443;28;20029;-78
2023/07/04 12:37:27;;;;;;;2.70;1.85;;;28.70;57.60;;;;;;5054233;28;20024;-78
2023/07/04 12:39:53;;;;;;;3.35;2.05;;;28.70;58.50;;;;;;5072491;28;20397;-77
2023/07/04 12:42:25;;;;;;;2.85;1.90;;;28.70;57.50;;;;;;5072349;28;20103;-78
2023/07/04 12:44:51;;;;;;;2.70;1.90;;;28.70;58.40;;;;;;5072521;28;20078;-77
2023/07/04 12:47:27;;;;;;;3.67;1.83;;;28.70;59.20;;;;;;5072534;28;20394;-77
2023/07/04 12:49:54;;;;;;;2.72;2.10;;;28.70;59.40;;;;;;5072545;28;20131;-76
2023/07/04 12:52:28;;;;;;;7.85;2.30;;;28.80;58.30;;;;;;5072333;28;20426;-76
2023/07/04 12:54:54;;;;;;;5.90;2.20;;;28.80;57.40;;;;;;5072436;28;20031;-76
2023/07/04 12:57:24;;;;;;;3.53;2.10;;;28.80;55.60;;;;;;5054130;28;20042;-76
2023/07/04 12:59:50;;;;;;;4.85;2.00;;;28.80;55.40;;;;;;5072511;28;20021;-77
2023/07/04 13:02:24;;;;;;;4.07;2.20;;;28.90;56.50;;;;;;5072019;28;20362;-78